createdAt,value
2018-05-08T00:02:32.575Z,12.08
2018-05-08T00:08:27.611Z,14.13
2018-05-08T00:14:22.601Z,13.61
2018-05-08T00:20:17.554Z,13.81
2018-05-08T00:26:12.573Z,15.35
2018-05-08T00:32:07.631Z,13.44
2018-05-08T00:38:02.582Z,14.69
2018-05-08T00:43:57.635Z,13.34
2018-05-08T00:49:52.639Z,14.81
2018-05-08T00:55:47.634Z,14.76
2018-05-08T01:01:42.598Z,15.42
2018-05-08T01:07:37.611Z,15.89
2018-05-08T01:13:32.612Z,16.9
2018-05-08T01:19:27.669Z,16.44
2018-05-08T01:25:22.622Z,16.11
2018-05-08T01:31:17.615Z,18.01
2018-05-08T01:37:12.737Z,20.32
2018-05-08T01:43:07.614Z,15.87
2018-05-08T01:49:02.628Z,16.15
2018-05-08T01:54:57.639Z,15.33
2018-05-08T02:00:52.649Z,16.27
2018-05-08T02:06:47.653Z,15.62
2018-05-08T02:12:42.658Z,14.86
2018-05-08T02:18:37.766Z,16.29
2018-05-08T02:24:32.625Z,17.57
2018-05-08T02:30:27.684Z,19
2018-05-08T02:36:22.646Z,17.87
2018-05-08T02:42:17.725Z,17.52
2018-05-08T02:48:12.706Z,14.9
2018-05-08T02:54:07.667Z,13.51
2018-05-08T03:00:03.102Z,14.59
2018-05-08T03:05:57.694Z,14.6
2018-05-08T03:11:52.708Z,14.7
2018-05-08T03:17:47.672Z,15.91
2018-05-08T03:23:42.684Z,17.75
2018-05-08T03:29:37.681Z,15.62
2018-05-08T03:35:32.736Z,14.91
2018-05-08T03:41:27.706Z,16.4
2018-05-08T03:47:22.836Z,16.54
2018-05-08T03:53:17.710Z,23.77
2018-05-08T03:59:12.684Z,22.87
2018-05-08T04:05:07.741Z,24.28
2018-05-08T04:11:02.713Z,23.68
2018-05-08T04:16:57.734Z,25.04
2018-05-08T04:22:52.697Z,23.67
2018-05-08T04:28:47.733Z,24.42
2018-05-08T04:34:42.699Z,26.31
2018-05-08T04:40:37.749Z,25.89
2018-05-08T04:46:32.710Z,27.82
2018-05-08T04:52:27.731Z,28.03
2018-05-08T04:58:22.817Z,27.93
2018-05-08T05:04:17.719Z,25.62
2018-05-08T05:10:12.790Z,27.61
2018-05-08T05:16:07.723Z,27.89
2018-05-08T05:22:02.742Z,28.99
2018-05-08T05:27:57.750Z,28.38
2018-05-08T05:33:52.767Z,28.12
2018-05-08T05:39:47.780Z,27.98
2018-05-08T05:45:42.740Z,29
2018-05-08T05:51:37.887Z,30.86
2018-05-08T05:57:32.767Z,29.19
2018-05-08T06:03:27.854Z,28.76
2018-05-08T06:09:22.775Z,29.6
2018-05-08T06:15:17.770Z,28.17
2018-05-08T06:21:12.825Z,28.51
2018-05-08T06:27:07.793Z,31.66
2018-05-08T06:33:02.811Z,28.71
2018-05-08T06:38:57.809Z,29.33
2018-05-08T06:44:52.785Z,32.48
2018-05-08T06:50:47.808Z,31.94
2018-05-08T06:56:42.872Z,34.07
2018-05-08T07:02:37.905Z,33.35
2018-05-08T07:08:32.844Z,32.96
2018-05-08T07:14:27.851Z,31.4
2018-05-08T07:20:22.835Z,35.37
2018-05-08T07:26:17.895Z,33.97
2018-05-08T07:32:12.826Z,33.87
2018-05-08T07:38:08.015Z,33.19
2018-05-08T07:44:02.892Z,31.42
2018-05-08T07:49:57.863Z,34.76
2018-05-08T07:55:52.895Z,31.9
2018-05-08T08:01:47.891Z,33.71
2018-05-08T08:07:42.880Z,33.33
2018-05-08T08:13:37.861Z,33.13
2018-05-08T08:19:32.906Z,31.71
2018-05-08T08:25:27.883Z,33.44
2018-05-08T08:31:22.956Z,33.68
2018-05-08T08:37:17.953Z,32.59
2018-05-08T08:43:12.913Z,34.21
2018-05-08T08:49:07.889Z,33.13
2018-05-08T08:55:02.907Z,32.64
2018-05-08T09:00:57.918Z,33.59
2018-05-08T09:06:52.902Z,29.75
2018-05-08T09:12:47.943Z,29.17
2018-05-08T09:18:42.970Z,24.97
2018-05-08T09:24:37.901Z,27.68
2018-05-08T09:30:32.937Z,23.67
2018-05-08T09:36:27.947Z,21.64
2018-05-08T09:42:22.972Z,21.63
2018-05-08T09:48:17.952Z,21.37
2018-05-08T09:54:13.028Z,21.14
2018-05-08T10:00:07.921Z,19.75
2018-05-08T10:06:02.917Z,22.44
2018-05-08T10:11:57.949Z,19.98
2018-05-08T10:17:52.978Z,20.4
2018-05-08T10:23:47.972Z,22.59
2018-05-08T10:29:42.995Z,21.06
2018-05-08T10:35:38.001Z,18.94
2018-05-08T10:41:32.991Z,20.5
2018-05-08T10:47:27.983Z,18.46
2018-05-08T10:53:23.013Z,19.3
2018-05-08T10:59:18.072Z,21.2
2018-05-08T11:05:13.047Z,18.69
2018-05-08T11:11:07.979Z,17.52
2018-05-08T11:17:03.044Z,17.21
2018-05-08T11:22:58.042Z,17.63
2018-05-08T11:28:53.022Z,17.86
2018-05-08T11:34:48.070Z,19.03
2018-05-08T11:40:43.026Z,18.95
2018-05-08T11:46:38.028Z,21.11
2018-05-08T11:52:33.071Z,18.8
2018-05-08T11:58:28.019Z,18.01
2018-05-08T12:04:23.047Z,14.87
2018-05-08T12:10:18.041Z,12.82
2018-05-08T12:16:13.060Z,11.68
2018-05-08T12:22:08.043Z,11.32
2018-05-08T12:28:03.054Z,9.62
2018-05-08T12:33:58.046Z,10.22
2018-05-08T12:39:53.080Z,9.8
2018-05-08T12:45:48.094Z,11.68
2018-05-08T12:51:43.094Z,10.05
2018-05-08T12:57:38.098Z,13.18
2018-05-08T13:03:33.106Z,9.83
2018-05-08T13:09:28.103Z,9.51
2018-05-08T13:15:23.102Z,9.79
2018-05-08T13:21:18.078Z,8.82
2018-05-08T13:27:13.108Z,8.8
2018-05-08T13:33:08.166Z,10.75
2018-05-08T13:39:03.101Z,11.72
2018-05-08T13:44:58.124Z,11.73
2018-05-08T13:50:53.102Z,12.89
2018-05-08T13:56:48.125Z,12.9
2018-05-08T14:02:43.108Z,12.13
2018-05-08T14:08:38.152Z,13.6
2018-05-08T14:14:33.124Z,14.64
2018-05-08T14:20:28.118Z,13.63
2018-05-08T14:26:23.199Z,14.47
2018-05-08T14:32:18.163Z,17.97
2018-05-08T14:38:13.204Z,19.47
2018-05-08T14:44:08.170Z,17.93
2018-05-08T14:50:03.159Z,17.86
2018-05-08T14:55:58.136Z,16.8
2018-05-08T15:01:53.164Z,16.43
2018-05-08T15:07:48.174Z,17.06
2018-05-08T15:13:43.151Z,16.74
2018-05-08T15:19:38.200Z,17.03
2018-05-08T15:25:33.199Z,16.18
2018-05-08T15:31:28.245Z,14.65
2018-05-08T15:37:23.191Z,15.42
2018-05-08T15:43:18.202Z,10.7
2018-05-08T15:49:13.206Z,7.01
2018-05-08T15:55:08.278Z,6.29
2018-05-08T16:01:03.213Z,7.33
2018-05-08T16:06:58.262Z,7.34
2018-05-08T16:12:53.202Z,7.56
2018-05-08T16:18:48.220Z,8.6
2018-05-08T16:24:43.241Z,8.19
2018-05-08T16:30:38.345Z,7.45
2018-05-08T16:36:33.251Z,7.78
2018-05-08T16:42:28.219Z,8.12
2018-05-08T16:48:23.384Z,7.89
2018-05-08T16:54:18.253Z,7.65
2018-05-08T17:00:13.262Z,7.62
2018-05-08T17:06:08.311Z,7.52
2018-05-08T17:12:03.271Z,8.27
2018-05-08T17:17:58.309Z,7.75
2018-05-08T17:23:53.254Z,7.63
2018-05-08T17:29:48.254Z,7.64
2018-05-08T17:35:43.326Z,8.24
2018-05-08T17:41:38.319Z,8.17
2018-05-08T17:47:33.319Z,8.17
2018-05-08T17:53:28.271Z,7.91
2018-05-08T17:59:23.310Z,8.27
2018-05-08T18:05:18.327Z,7.78
2018-05-08T18:11:13.310Z,8.14
2018-05-08T18:17:08.310Z,8.34
2018-05-08T18:23:03.288Z,7.36
2018-05-08T18:28:58.288Z,8.45
2018-05-08T18:34:53.355Z,8.55
2018-05-08T18:40:48.319Z,9.44
2018-05-08T18:46:43.371Z,9.07
2018-05-08T18:52:38.317Z,9.94
2018-05-08T18:58:33.372Z,9.7
2018-05-08T19:04:28.342Z,9.54
2018-05-08T19:10:23.348Z,9.63
2018-05-08T19:16:18.354Z,9.9
2018-05-08T19:22:13.390Z,8.78
2018-05-08T19:28:08.340Z,9.84
2018-05-08T19:34:03.338Z,9.87
2018-05-08T19:39:58.398Z,10.5
2018-05-08T19:45:53.393Z,9.8
2018-05-08T19:51:48.341Z,8.9
2018-05-08T19:57:43.347Z,8.72
2018-05-08T20:03:38.405Z,9.63
2018-05-08T20:09:33.412Z,9.84
2018-05-08T20:15:28.427Z,9.65
2018-05-08T20:21:23.380Z,10.03
2018-05-08T20:27:18.438Z,10.61
2018-05-08T20:33:13.388Z,10.16
2018-05-08T20:39:08.408Z,9.98
2018-05-08T20:45:03.398Z,10.06
2018-05-08T20:50:58.571Z,11.37
2018-05-08T20:56:53.442Z,10.75
2018-05-08T21:02:48.439Z,10.45
2018-05-08T21:08:43.422Z,10.21
2018-05-08T21:14:38.430Z,12.5
2018-05-08T21:20:33.396Z,14.81
2018-05-08T21:26:28.422Z,16.12
2018-05-08T21:32:23.412Z,15.56
2018-05-08T21:38:18.427Z,15.97
2018-05-08T21:44:13.472Z,15.78
2018-05-08T21:50:08.425Z,15.65
2018-05-08T21:56:03.473Z,16.68
2018-05-08T22:01:58.441Z,14.62
2018-05-08T22:07:53.450Z,14.16
2018-05-08T22:13:48.449Z,15.22
2018-05-08T22:19:43.483Z,14.6
2018-05-08T22:25:38.492Z,16.34
2018-05-08T22:31:33.486Z,15.26
2018-05-08T22:37:28.500Z,14.48
2018-05-08T22:43:23.488Z,14.25
2018-05-08T22:49:18.478Z,13.5
2018-05-08T22:55:13.447Z,14.12
2018-05-08T23:01:08.469Z,13.12
2018-05-08T23:07:03.493Z,13.44
2018-05-08T23:12:58.496Z,13.88
2018-05-08T23:18:53.526Z,13.27
2018-05-08T23:24:48.511Z,12.27
2018-05-08T23:30:43.509Z,13.65
2018-05-08T23:36:38.498Z,13.15
2018-05-08T23:42:33.535Z,12.62
2018-05-08T23:48:28.494Z,11.9
2018-05-08T23:54:23.508Z,12.7
